createdAt,value
2018-09-17T09:00:04.983Z,5.40
2018-09-17T09:02:38.472Z,5.10
2018-09-17T09:05:12.014Z,5.03
2018-09-17T09:07:45.351Z,5.80
2018-09-17T09:10:18.425Z,5.77
2018-09-17T09:12:51.835Z,5.00
2018-09-17T09:15:22.947Z,5.03
2018-09-17T09:17:51.271Z,5.00
2018-09-17T09:20:19.363Z,4.00
2018-09-17T09:22:47.743Z,5.23
2018-09-17T09:25:15.896Z,4.65
2018-09-17T09:27:43.999Z,4.70
2018-09-17T09:30:12.095Z,4.20
2018-09-17T09:32:40.158Z,4.30
2018-09-17T09:35:08.230Z,4.80
2018-09-17T09:37:36.305Z,4.77
2018-09-17T09:40:04.583Z,4.00
2018-09-17T09:42:32.674Z,3.98
2018-09-17T09:45:00.788Z,4.10
2018-09-17T09:47:29.131Z,3.65
2018-09-17T09:49:57.313Z,5.40
2018-09-17T09:52:25.467Z,3.80
2018-09-17T09:54:53.722Z,4.50
2018-09-17T09:57:22.247Z,2.83
2018-09-17T09:59:50.360Z,3.20
2018-09-17T10:02:23.799Z,3.40
2018-09-17T10:04:51.924Z,5.17
2018-09-17T10:07:20.006Z,5.27
2018-09-17T10:09:53.719Z,4.70
2018-09-17T10:12:27.180Z,4.03
2018-09-17T10:15:00.805Z,5.15
2018-09-17T10:17:35.103Z,3.67
2018-09-17T10:20:03.217Z,3.65
2018-09-17T10:22:31.331Z,4.25
2018-09-17T10:24:59.477Z,3.33
2018-09-17T10:27:27.612Z,3.27
2018-09-17T10:29:55.768Z,3.80
2018-09-17T10:32:23.844Z,2.90
2018-09-17T10:34:51.971Z,3.00
2018-09-17T10:37:20.078Z,2.50
2018-09-17T10:39:49.147Z,2.80
2018-09-17T10:42:17.259Z,4.03
2018-09-17T10:44:45.377Z,4.20
2018-09-17T10:47:13.603Z,4.00
2018-09-17T10:49:41.715Z,4.40
2018-09-17T10:52:09.796Z,3.03
2018-09-17T10:54:37.901Z,3.10
2018-09-17T10:57:06.241Z,2.55
2018-09-17T10:59:34.372Z,3.10
2018-09-17T11:02:02.448Z,3.53
2018-09-17T11:04:30.668Z,3.87
2018-09-17T11:06:58.766Z,3.50
2018-09-17T11:09:26.859Z,2.80
2018-09-17T11:11:55.194Z,3.00
2018-09-17T11:14:23.543Z,2.60
2018-09-17T11:16:51.634Z,2.30
2018-09-17T11:19:19.725Z,4.00
2018-09-17T11:21:47.850Z,2.63
2018-09-17T11:24:17.013Z,2.67
2018-09-17T11:26:45.122Z,2.40
2018-09-17T11:29:13.231Z,2.67
2018-09-17T11:31:41.337Z,2.43
2018-09-17T11:34:09.449Z,2.53
2018-09-17T11:36:37.591Z,1.73
2018-09-17T11:39:07.088Z,2.40
2018-09-17T11:41:35.162Z,3.40
2018-09-17T11:44:03.284Z,2.98
2018-09-17T11:46:31.372Z,2.62
2018-09-17T11:48:59.473Z,2.65
2018-09-17T11:51:27.595Z,2.42
2018-09-17T11:53:55.766Z,2.20
2018-09-17T11:56:23.787Z,2.30
2018-09-17T11:58:51.877Z,2.13
2018-09-17T12:01:25.200Z,2.40
2018-09-17T12:03:58.782Z,2.35
2018-09-17T12:06:32.180Z,2.57
2018-09-17T12:09:00.300Z,2.47
2018-09-17T12:11:28.374Z,2.70
2018-09-17T12:13:56.488Z,2.83
2018-09-17T12:16:24.596Z,2.00
2018-09-17T12:18:52.690Z,2.23
2018-09-17T12:21:20.797Z,2.67
2018-09-17T12:23:48.937Z,2.43
2018-09-17T12:26:17.011Z,2.63
2018-09-17T12:28:45.760Z,1.90
2018-09-17T12:31:14.492Z,2.20
2018-09-17T12:33:43.675Z,2.50
2018-09-17T12:36:11.698Z,3.33
2018-09-17T12:38:39.803Z,2.62
2018-09-17T12:41:07.898Z,2.43
2018-09-17T12:43:36.007Z,2.08
2018-09-17T12:46:04.087Z,2.00
2018-09-17T12:48:32.155Z,2.30
2018-09-17T12:51:01.840Z,2.07
2018-09-17T12:53:29.945Z,2.15
2018-09-17T12:55:58.019Z,2.40
2018-09-17T12:58:27.811Z,2.40
2018-09-17T13:00:56.759Z,2.20
2018-09-17T13:03:25.905Z,1.95
2018-09-17T13:05:53.890Z,2.07
2018-09-17T13:08:21.967Z,1.90
2018-09-17T13:10:50.044Z,2.27
2018-09-17T13:13:18.138Z,2.53
2018-09-17T13:15:52.304Z,2.20
2018-09-17T13:18:20.736Z,2.30
2018-09-17T13:20:48.810Z,2.73
2018-09-17T13:23:16.896Z,1.70
2018-09-17T13:25:45.331Z,1.83
2018-09-17T13:28:13.632Z,2.30
2018-09-17T13:30:41.728Z,2.37
2018-09-17T13:33:09.844Z,2.33
2018-09-17T13:35:37.980Z,2.20
2018-09-17T13:38:06.112Z,2.60
2018-09-17T13:40:34.265Z,2.17
2018-09-17T13:43:02.367Z,2.23
2018-09-17T13:45:30.476Z,2.23
2018-09-17T13:47:58.583Z,2.60
2018-09-17T13:50:27.259Z,2.30
2018-09-17T13:52:55.342Z,2.20
2018-09-17T13:55:23.900Z,2.00
2018-09-17T13:57:52.064Z,2.33
2018-09-17T14:00:20.147Z,2.40
2018-09-17T14:02:48.257Z,2.30
2018-09-17T14:05:16.396Z,2.47
2018-09-17T14:07:44.487Z,1.70
2018-09-17T14:10:13.359Z,2.20
2018-09-17T14:12:41.344Z,1.80
2018-09-17T14:15:09.458Z,2.47
2018-09-17T14:17:37.593Z,2.13
2018-09-17T14:20:05.930Z,2.10
2018-09-17T14:22:34.000Z,2.43
2018-09-17T14:25:02.101Z,2.25
2018-09-17T14:27:30.286Z,2.20
2018-09-17T14:29:58.298Z,2.47
2018-09-17T14:32:32.101Z,2.20
2018-09-17T14:35:00.254Z,2.77
2018-09-17T14:37:29.303Z,2.10
2018-09-17T14:39:58.486Z,2.77
2018-09-17T14:42:26.579Z,2.43
2018-09-17T14:44:54.667Z,2.10
2018-09-17T14:47:23.524Z,2.53
2018-09-17T14:49:51.605Z,2.03
2018-09-17T14:52:20.311Z,2.40
2018-09-17T14:54:48.466Z,2.37
2018-09-17T14:57:16.719Z,2.35
2018-09-17T14:59:44.834Z,2.10
2018-09-17T15:02:12.932Z,2.10
2018-09-17T15:04:41.039Z,2.20
2018-09-17T15:07:09.152Z,2.55
2018-09-17T15:09:37.256Z,2.07
2018-09-17T15:12:05.373Z,2.25
2018-09-17T15:14:33.479Z,2.40
2018-09-17T15:17:01.620Z,2.00
2018-09-17T15:19:29.741Z,2.17
2018-09-17T15:21:57.852Z,1.70
2018-09-17T15:24:25.943Z,2.40
2018-09-17T15:26:54.085Z,2.40
2018-09-17T15:29:22.331Z,2.10
2018-09-17T15:31:50.456Z,2.43
2018-09-17T15:34:19.684Z,2.20
2018-09-17T15:36:47.756Z,2.30
2018-09-17T15:39:15.921Z,2.40
2018-09-17T15:41:44.023Z,2.20
2018-09-17T15:44:12.370Z,2.22
2018-09-17T15:46:40.455Z,1.97
2018-09-17T15:49:08.514Z,2.30
2018-09-17T15:51:36.628Z,1.80
2018-09-17T15:54:06.331Z,2.30
2018-09-17T15:56:34.444Z,2.00
2018-09-17T15:59:02.558Z,2.20
2018-09-17T16:01:32.052Z,2.17
2018-09-17T16:04:01.115Z,1.92
2018-09-17T16:06:29.222Z,1.77
2018-09-17T16:08:57.331Z,2.10
2018-09-17T16:11:25.437Z,2.00
2018-09-17T16:13:53.550Z,2.07
2018-09-17T16:16:21.655Z,1.90
2018-09-17T16:18:50.029Z,2.20
2018-09-17T16:21:18.124Z,2.10
2018-09-17T16:23:46.253Z,2.20
2018-09-17T16:26:14.367Z,2.10
2018-09-17T16:28:42.535Z,2.63
2018-09-17T16:31:10.649Z,2.40
2018-09-17T16:33:38.747Z,2.25
2018-09-17T16:36:06.969Z,2.00
2018-09-17T16:38:35.071Z,1.82
2018-09-17T16:41:03.269Z,2.60
2018-09-17T16:43:32.512Z,1.87
2018-09-17T16:46:00.591Z,2.30
2018-09-17T16:48:29.332Z,2.30
2018-09-17T16:50:57.491Z,1.87
2018-09-17T16:53:25.989Z,2.40
2018-09-17T16:55:54.005Z,2.73
2018-09-17T16:58:22.087Z,2.00
2018-09-17T17:00:50.168Z,2.07
2018-09-17T17:03:18.276Z,2.17
2018-09-17T17:05:46.438Z,2.50
2018-09-17T17:08:14.479Z,2.30
2018-09-17T17:10:42.942Z,2.23
2018-09-17T17:13:11.003Z,2.35
2018-09-17T17:15:39.623Z,2.05
2018-09-17T17:18:07.684Z,2.20
2018-09-17T17:20:35.779Z,2.20
2018-09-17T17:23:04.644Z,2.30
2018-09-17T17:25:33.044Z,2.23
2018-09-17T17:28:01.781Z,3.03
2018-09-17T17:30:29.837Z,2.10
2018-09-17T17:32:59.682Z,1.90
2018-09-17T17:35:27.766Z,2.30
2018-09-17T17:37:55.880Z,2.43
2018-09-17T17:40:24.008Z,2.30
2018-09-17T17:42:52.071Z,2.70
2018-09-17T17:45:20.215Z,1.98
2018-09-17T17:47:48.644Z,2.30
2018-09-17T17:50:17.168Z,1.87
2018-09-17T17:52:45.313Z,2.30
2018-09-17T17:55:14.124Z,2.20
2018-09-17T17:57:42.259Z,2.67
2018-09-17T18:00:11.072Z,3.90
2018-09-17T18:02:39.143Z,2.30
2018-09-17T18:05:07.250Z,2.57
2018-09-17T18:07:37.224Z,2.10
2018-09-17T18:10:06.598Z,2.10
2018-09-17T18:12:34.755Z,2.20
2018-09-17T18:15:02.851Z,2.20
2018-09-17T18:17:31.402Z,2.00
2018-09-17T18:19:59.475Z,2.15
2018-09-17T18:22:29.093Z,2.10
2018-09-17T18:24:57.844Z,1.80
2018-09-17T18:27:28.944Z,2.40
2018-09-17T18:29:57.275Z,2.07
2018-09-17T18:32:25.399Z,1.90
2018-09-17T18:34:53.562Z,2.27
2018-09-17T18:37:22.406Z,2.60
2018-09-17T18:39:50.554Z,2.23
2018-09-17T18:42:18.669Z,1.95
2018-09-17T18:44:46.736Z,1.97
2018-09-17T18:47:14.875Z,2.37
2018-09-17T18:49:42.921Z,1.93
2018-09-17T18:52:11.052Z,2.23
2018-09-17T18:54:39.810Z,2.47
2018-09-17T18:57:08.643Z,2.43
2018-09-17T18:59:37.026Z,2.77
2018-09-17T19:02:05.363Z,2.30
2018-09-17T19:04:33.533Z,2.23
2018-09-17T19:07:01.733Z,2.00
2018-09-17T19:10:02.427Z,2.17
2018-09-17T19:12:30.638Z,1.82
2018-09-17T19:15:04.041Z,2.20
2018-09-17T19:17:37.540Z,2.00
2018-09-17T19:20:06.169Z,1.97
2018-09-17T19:22:39.507Z,2.50
2018-09-17T19:25:10.547Z,2.80
2018-09-17T19:27:44.584Z,2.60
2018-09-17T19:30:12.795Z,3.00
2018-09-17T19:32:40.898Z,3.00
2018-09-17T19:35:09.505Z,3.25
2018-09-17T19:37:42.899Z,3.13
2018-09-17T19:40:16.281Z,2.83
2018-09-17T19:42:45.455Z,3.47
2018-09-17T19:45:18.903Z,3.37
2018-09-17T19:47:47.030Z,2.90
2018-09-17T19:50:20.390Z,2.70
2018-09-17T19:52:48.521Z,2.83
2018-09-17T19:55:17.588Z,3.12
2018-09-17T19:57:51.123Z,3.13
2018-09-17T20:00:19.259Z,2.55
2018-09-17T20:02:47.675Z,2.42
2018-09-17T20:05:21.174Z,3.17
2018-09-17T20:07:49.259Z,2.57
2018-09-17T20:10:17.435Z,3.13
2018-09-17T20:12:45.785Z,3.70
2018-09-17T20:15:13.888Z,2.30
2018-09-17T20:17:42.000Z,3.00
2018-09-17T20:20:11.179Z,3.15
2018-09-17T20:22:39.271Z,3.17
2018-09-17T20:25:07.359Z,2.70
2018-09-17T20:27:35.457Z,2.37
2018-09-17T20:30:03.916Z,2.97
2018-09-17T20:32:32.014Z,3.00
2018-09-17T20:35:00.312Z,2.37
2018-09-17T20:37:28.387Z,2.30
2018-09-17T20:39:56.500Z,3.53
2018-09-17T20:42:24.610Z,3.00
2018-09-17T20:44:52.700Z,2.63
2018-09-17T20:47:20.786Z,2.92
2018-09-17T20:49:48.968Z,3.00
2018-09-17T20:52:17.313Z,3.40
